Time;durP1;ratioP1;P1;durP2;ratioP2;P2;SDS_P1;SDS_P2;PMS_P1;PMS_P2;Temp;Humidity;BMP_temperature;BMP_pressure;BME280_temperature;BME280_humidity;BME280_pressure;Samples;Min_cycle;Max_cycle;Signal;HPM_P1;HPM_P2
2021/08/23 00:00:17;;;;;;;5.75;1.70;;;;;;;;;;5052483;28;20060;-79
2021/08/23 00:02:45;;;;;;;5.63;1.50;;;;;;;;;;5061120;28;20060;-79
2021/08/23 00:05:12;;;;;;;8.82;2.38;;;;;;;;;;5033559;28;20092;-79
2021/08/23 00:07:39;;;;;;;8.70;1.77;;;;;;;;;;5063450;28;20078;-80
2021/08/23 00:10:08;;;;;;;3.38;1.88;;;;;;;;;;5046165;28;20092;-79
2021/08/23 00:12:35;;;;;;;7.78;1.58;;;;;;;;;;5059271;28;20128;-79
2021/08/23 00:15:02;;;;;;;3.72;1.50;;;;;;;;;;5050492;28;20136;-79
2021/08/23 00:17:29;;;;;;;4.18;1.70;;;;;;;;;;5064874;28;20048;-78
2021/08/23 00:19:56;;;;;;;4.43;1.90;;;;;;;;;;5058038;28;20054;-78
2021/08/23 00:22:35;;;;;;;3.78;1.58;;;;;;;;;;5064514;28;20083;-79
2021/08/23 00:25:03;;;;;;;6.53;1.63;;;;;;;;;;5061827;28;20041;-79
2021/08/23 00:27:31;;;;;;;6.75;1.45;;;;;;;;;;5053341;28;20068;-78
2021/08/23 00:29:58;;;;;;;6.60;1.88;;;;;;;;;;5065733;28;20135;-79
2021/08/23 00:32:25;;;;;;;5.03;1.60;;;;;;;;;;5060250;28;20151;-79
2021/08/23 00:34:52;;;;;;;7.40;1.95;;;;;;;;;;5066532;28;20045;-79
2021/08/23 00:37:20;;;;;;;6.78;1.67;;;;;;;;;;5059435;28;20390;-79
2021/08/23 00:39:47;;;;;;;5.82;1.48;;;;;;;;;;5057360;28;20136;-78
2021/08/23 00:42:14;;;;;;;5.55;1.95;;;;;;;;;;5037296;28;20136;-79
2021/08/23 00:44:42;;;;;;;8.65;1.50;;;;;;;;;;5069048;28;20509;-79
2021/08/23 00:47:10;;;;;;;5.82;1.88;;;;;;;;;;5060369;28;20949;-79
2021/08/23 00:49:37;;;;;;;5.28;2.20;;;;;;;;;;5069479;28;20072;-79
2021/08/23 00:52:06;;;;;;;5.13;1.67;;;;;;;;;;5058188;28;20128;-79
2021/08/23 00:54:34;;;;;;;6.30;1.73;;;;;;;;;;5063832;28;20052;-79
2021/08/23 00:57:05;;;;;;;3.92;1.60;;;;;;;;;;5040351;28;20080;-79
2021/08/23 00:59:37;;;;;;;3.45;1.75;;;;;;;;;;5056503;28;20556;-79
2021/08/23 01:02:05;;;;;;;3.70;1.77;;;;;;;;;;5059066;28;20456;-78
2021/08/23 01:04:41;;;;;;;5.15;1.92;;;;;;;;;;5063618;28;20059;-78
2021/08/23 01:07:12;;;;;;;7.90;1.67;;;;;;;;;;5036432;28;20048;-78
2021/08/23 01:09:40;;;;;;;6.43;2.05;;;;;;;;;;5068593;28;20102;-78
2021/08/23 01:12:07;;;;;;;4.55;1.77;;;;;;;;;;5040664;28;20037;-79
2021/08/23 01:14:35;;;;;;;5.47;1.80;;;;;;;;;;5038519;28;20091;-78
2021/08/23 01:17:02;;;;;;;3.22;1.90;;;;;;;;;;5069412;28;20135;-79
2021/08/23 01:19:30;;;;;;;5.60;2.50;;;;;;;;;;5051645;28;20057;-78
2021/08/23 01:22:00;;;;;;;6.63;2.00;;;;;;;;;;5051210;28;20091;-79
2021/08/23 01:24:29;;;;;;;5.63;1.88;;;;;;;;;;5066493;28;20131;-79
2021/08/23 01:26:57;;;;;;;9.80;2.10;;;;;;;;;;5058482;28;20131;-78
2021/08/23 01:29:31;;;;;;;5.63;1.65;;;;;;;;;;5045830;28;20127;-79
2021/08/23 01:32:11;;;;;;;6.95;2.20;;;;;;;;;;5036371;28;20080;-78
2021/08/23 01:34:39;;;;;;;4.53;1.85;;;;;;;;;;5047286;28;20135;-79
2021/08/23 01:37:07;;;;;;;7.60;2.35;;;;;;;;;;5066242;28;20084;-79
2021/08/23 01:39:35;;;;;;;6.85;2.10;;;;;;;;;;5060802;28;20714;-79
2021/08/23 01:42:02;;;;;;;2.92;1.85;;;;;;;;;;5046887;28;20059;-78
2021/08/23 01:44:30;;;;;;;8.00;3.05;;;;;;;;;;5069296;28;20084;-79
2021/08/23 01:46:57;;;;;;;7.72;3.20;;;;;;;;;;5040988;28;20478;-78
2021/08/23 01:49:24;;;;;;;7.38;2.33;;;;;;;;;;5043557;28;20052;-78
2021/08/23 01:51:51;;;;;;;7.00;2.40;;;;;;;;;;5049054;28;20123;-78
2021/08/23 01:54:18;;;;;;;6.35;2.28;;;;;;;;;;5039659;28;20147;-78
2021/08/23 01:56:45;;;;;;;6.40;3.35;;;;;;;;;;5050254;28;20466;-79
2021/08/23 01:59:13;;;;;;;6.13;2.47;;;;;;;;;;5062336;28;20076;-79
2021/08/23 02:01:41;;;;;;;4.15;1.85;;;;;;;;;;5071698;28;20056;-79
2021/08/23 02:04:09;;;;;;;10.40;2.35;;;;;;;;;;5054450;28;20098;-78
2021/08/23 02:06:36;;;;;;;8.75;2.50;;;;;;;;;;5046719;28;20144;-78
2021/08/23 02:09:03;;;;;;;5.10;2.30;;;;;;;;;;5067568;28;20041;-78
2021/08/23 02:11:31;;;;;;;8.30;2.40;;;;;;;;;;5041814;28;20098;-78
2021/08/23 02:13:58;;;;;;;7.15;2.72;;;;;;;;;;5047720;28;20172;-79
2021/08/23 02:16:25;;;;;;;7.00;2.40;;;;;;;;;;5048852;28;20040;-79
2021/08/23 02:18:53;;;;;;;10.27;3.10;;;;;;;;;;5063316;28;20091;-78
2021/08/23 02:21:21;;;;;;;8.02;3.00;;;;;;;;;;5064483;28;20076;-78
2021/08/23 02:23:49;;;;;;;10.07;3.10;;;;;;;;;;5054894;28;20662;-79
2021/08/23 02:26:17;;;;;;;8.40;2.90;;;;;;;;;;5050941;28;20135;-79
2021/08/23 02:28:44;;;;;;;7.45;3.60;;;;;;;;;;5051536;28;20655;-79
2021/08/23 02:31:11;;;;;;;12.00;3.67;;;;;;;;;;5042927;28;20044;-78
2021/08/23 02:33:39;;;;;;;10.35;2.90;;;;;;;;;;5063929;28;20048;-78
2021/08/23 02:36:06;;;;;;;9.98;2.97;;;;;;;;;;5042802;28;20140;-78
2021/08/23 02:38:33;;;;;;;9.20;2.92;;;;;;;;;;5047817;28;20176;-78
2021/08/23 02:41:00;;;;;;;9.07;2.80;;;;;;;;;;5067018;28;20140;-79
2021/08/23 02:43:28;;;;;;;8.13;3.15;;;;;;;;;;5040685;28;20076;-78
2021/08/23 02:45:56;;;;;;;9.13;3.28;;;;;;;;;;5066774;28;20139;-78
2021/08/23 02:48:23;;;;;;;7.90;3.70;;;;;;;;;;5061881;28;20102;-78
2021/08/23 02:50:51;;;;;;;11.00;3.17;;;;;;;;;;5037173;28;20075;-79
2021/08/23 02:53:18;;;;;;;10.35;2.90;;;;;;;;;;5062842;28;20799;-78
2021/08/23 02:55:45;;;;;;;10.07;3.40;;;;;;;;;;5063904;28;20147;-78
2021/08/23 02:58:13;;;;;;;7.75;3.13;;;;;;;;;;5052757;28;20167;-78
2021/08/23 03:00:40;;;;;;;9.15;3.25;;;;;;;;;;5045100;28;20792;-78
2021/08/23 03:03:07;;;;;;;7.13;3.30;;;;;;;;;;5062547;28;20135;-78
2021/08/23 03:05:35;;;;;;;15.40;3.60;;;;;;;;;;5059915;28;20083;-78
2021/08/23 03:08:02;;;;;;;9.82;3.65;;;;;;;;;;5061464;28;21941;-78
2021/08/23 03:10:29;;;;;;;13.95;3.40;;;;;;;;;;5043048;28;20656;-78
2021/08/23 03:12:56;;;;;;;7.28;3.85;;;;;;;;;;5039786;28;20119;-78
2021/08/23 03:15:24;;;;;;;11.48;3.63;;;;;;;;;;5056707;28;20080;-79
2021/08/23 03:17:51;;;;;;;6.55;3.28;;;;;;;;;;5049346;28;20067;-78
2021/08/23 03:20:20;;;;;;;14.32;3.67;;;;;;;;;;5060230;28;20103;-78
2021/08/23 03:22:48;;;;;;;9.63;3.40;;;;;;;;;;5066569;28;20426;-78
2021/08/23 03:25:15;;;;;;;7.30;3.60;;;;;;;;;;5047281;28;20052;-78
2021/08/23 03:27:42;;;;;;;13.27;3.63;;;;;;;;;;5041142;28;20127;-78
2021/08/23 03:30:10;;;;;;;8.27;2.85;;;;;;;;;;5068881;28;20052;-79
2021/08/23 03:32:38;;;;;;;10.85;3.05;;;;;;;;;;5069686;28;20480;-79
2021/08/23 03:35:07;;;;;;;9.85;2.88;;;;;;;;;;5069694;28;20727;-79
2021/08/23 03:37:36;;;;;;;7.30;3.22;;;;;;;;;;5064228;28;20215;-79
2021/08/23 03:40:03;;;;;;;13.13;3.55;;;;;;;;;;5067841;28;20127;-80
2021/08/23 03:42:30;;;;;;;7.53;3.17;;;;;;;;;;5059976;28;20152;-77
2021/08/23 03:44:57;;;;;;;10.38;4.20;;;;;;;;;;5035702;28;20055;-79
2021/08/23 03:47:27;;;;;;;7.53;3.53;;;;;;;;;;5054510;28;21811;-79
2021/08/23 03:49:54;;;;;;;8.77;3.10;;;;;;;;;;5071416;28;20128;-79
2021/08/23 03:52:21;;;;;;;12.45;3.42;;;;;;;;;;5049866;28;20128;-79
2021/08/23 03:54:50;;;;;;;12.50;3.50;;;;;;;;;;5071210;28;20080;-79
2021/08/23 03:57:17;;;;;;;5.65;3.05;;;;;;;;;;5062923;28;20717;-79
2021/08/23 03:59:44;;;;;;;13.07;3.83;;;;;;;;;;5041045;28;20139;-79
2021/08/23 04:02:12;;;;;;;10.95;3.67;;;;;;;;;;5051206;28;20045;-79
2021/08/23 04:04:39;;;;;;;12.63;2.97;;;;;;;;;;5055010;28;20097;-79
2021/08/23 04:07:06;;;;;;;10.55;3.95;;;;;;;;;;5053571;28;20113;-79
2021/08/23 04:09:33;;;;;;;9.73;3.40;;;;;;;;;;5061562;28;20059;-79
2021/08/23 04:12:00;;;;;;;10.15;3.10;;;;;;;;;;5039923;28;20074;-79
2021/08/23 04:14:28;;;;;;;9.05;3.45;;;;;;;;;;5066786;28;20128;-79
2021/08/23 04:16:55;;;;;;;5.95;2.90;;;;;;;;;;5066742;28;20084;-79
2021/08/23 04:19:24;;;;;;;8.35;2.65;;;;;;;;;;5059710;28;20130;-79
2021/08/23 04:21:52;;;;;;;9.68;3.10;;;;;;;;;;5057545;28;20052;-78
2021/08/23 04:24:20;;;;;;;10.00;3.63;;;;;;;;;;5050485;28;20136;-79
2021/08/23 04:26:47;;;;;;;12.55;3.05;;;;;;;;;;5035518;28;20459;-79
2021/08/23 04:29:21;;;;;;;7.45;2.92;;;;;;;;;;5034243;28;20049;-78
2021/08/23 04:31:48;;;;;;;7.63;2.92;;;;;;;;;;5061310;28;20045;-79
2021/08/23 04:34:16;;;;;;;5.28;2.85;;;;;;;;;;5050063;28;20055;-78
2021/08/23 04:36:44;;;;;;;8.88;2.55;;;;;;;;;;5070905;28;20090;-78
2021/08/23 04:39:12;;;;;;;8.80;2.63;;;;;;;;;;5051932;28;20059;-78
2021/08/23 04:41:40;;;;;;;10.07;3.03;;;;;;;;;;5063894;28;20500;-79
2021/08/23 04:44:08;;;;;;;9.93;2.70;;;;;;;;;;5070799;28;20121;-79
2021/08/23 04:46:37;;;;;;;12.25;3.10;;;;;;;;;;5052061;28;20090;-80
2021/08/23 04:49:05;;;;;;;7.45;3.38;;;;;;;;;;5053627;28;20070;-80
2021/08/23 04:51:32;;;;;;;10.13;3.10;;;;;;;;;;5051301;28;20119;-80
2021/08/23 04:53:59;;;;;;;6.57;2.67;;;;;;;;;;5041267;28;20048;-80
2021/08/23 04:56:26;;;;;;;9.95;2.85;;;;;;;;;;5041337;28;20052;-80
2021/08/23 04:58:53;;;;;;;11.25;2.72;;;;;;;;;;5063119;28;20113;-79
2021/08/23 05:01:21;;;;;;;10.38;2.83;;;;;;;;;;5071817;28;20135;-79
2021/08/23 05:03:48;;;;;;;9.48;2.72;;;;;;;;;;5061944;22;21654;-81
2021/08/23 05:06:15;;;;;;;5.68;2.78;;;;;;;;;;5008244;28;20130;-81
2021/08/23 05:08:43;;;;;;;8.82;2.83;;;;;;;;;;4993710;28;20128;-81
2021/08/23 05:11:11;;;;;;;7.97;3.05;;;;;;;;;;4999175;28;20073;-82
2021/08/23 05:13:44;;;;;;;6.47;2.80;;;;;;;;;;4993653;28;20078;-82
2021/08/23 05:16:12;;;;;;;5.95;2.75;;;;;;;;;;4991979;28;20082;-76
2021/08/23 05:18:45;;;;;;;8.55;2.78;;;;;;;;;;5008126;28;20153;-79
2021/08/23 05:21:12;;;;;;;9.38;3.50;;;;;;;;;;4992167;28;20077;-76
2021/08/23 05:23:39;;;;;;;6.78;2.70;;;;;;;;;;5010697;28;20077;-78
2021/08/23 05:26:07;;;;;;;7.22;2.38;;;;;;;;;;5006664;28;20537;-77
2021/08/23 05:28:35;;;;;;;13.38;2.78;;;;;;;;;;4997087;28;20128;-77
2021/08/23 05:31:03;;;;;;;6.07;2.65;;;;;;;;;;5005070;28;20077;-77
2021/08/23 05:33:31;;;;;;;12.80;3.50;;;;;;;;;;5004542;28;20046;-78
2021/08/23 05:35:58;;;;;;;7.78;2.42;;;;;;;;;;4982493;28;20738;-82
2021/08/23 05:38:25;;;;;;;5.05;2.20;;;;;;;;;;4994066;28;20454;-81
2021/08/23 05:41:00;;;;;;;5.63;2.30;;;;;;;;;;5011175;28;20140;-83
2021/08/23 05:43:27;;;;;;;5.82;2.85;;;;;;;;;;5014612;28;20129;-82
2021/08/23 05:45:56;;;;;;;6.97;2.90;;;;;;;;;;4997626;28;20107;-82
2021/08/23 05:48:23;;;;;;;6.35;2.80;;;;;;;;;;5014057;28;20079;-82
2021/08/23 05:50:50;;;;;;;11.60;3.20;;;;;;;;;;4997616;28;20406;-82
2021/08/23 05:53:17;;;;;;;9.55;2.97;;;;;;;;;;5014541;28;20108;-82
2021/08/23 05:55:45;;;;;;;10.20;2.92;;;;;;;;;;4991671;28;20077;-83
2021/08/23 05:58:12;;;;;;;7.38;2.30;;;;;;;;;;4990481;28;20077;-85
2021/08/23 06:00:41;;;;;;;6.78;2.80;;;;;;;;;;4998645;28;20445;-85
2021/08/23 06:03:08;;;;;;;4.80;2.42;;;;;;;;;;4978500;28;20050;-85
2021/08/23 06:05:39;;;;;;;16.50;2.60;;;;;;;;;;4999130;28;20174;-85
2021/08/23 06:08:06;;;;;;;8.35;2.53;;;;;;;;;;5002577;28;20058;-83
2021/08/23 06:10:34;;;;;;;6.72;2.35;;;;;;;;;;4990856;28;20597;-83
2021/08/23 06:13:01;;;;;;;7.40;2.45;;;;;;;;;;4993993;28;20077;-84
2021/08/23 06:15:29;;;;;;;4.55;2.45;;;;;;;;;;4997559;28;20502;-84
2021/08/23 06:17:57;;;;;;;5.18;2.38;;;;;;;;;;4993735;28;20567;-84
2021/08/23 06:20:24;;;;;;;8.05;2.55;;;;;;;;;;5011915;28;20089;-84
2021/08/23 06:22:51;;;;;;;5.35;2.33;;;;;;;;;;5013975;28;20124;-84
2021/08/23 06:25:23;;;;;;;9.75;2.70;;;;;;;;;;5002589;28;20108;-85
2021/08/23 06:27:50;;;;;;;8.70;2.15;;;;;;;;;;5019509;28;20073;-85
2021/08/23 06:30:18;;;;;;;8.63;2.45;;;;;;;;;;4987071;28;20043;-84
2021/08/23 06:32:45;;;;;;;6.07;2.20;;;;;;;;;;5005661;28;20077;-85
2021/08/23 06:35:12;;;;;;;10.55;2.72;;;;;;;;;;4996262;28;20144;-84
2021/08/23 06:37:41;;;;;;;11.27;2.30;;;;;;;;;;5012022;28;20068;-85
2021/08/23 06:40:08;;;;;;;3.42;1.67;;;;;;;;;;5009160;28;20144;-85
2021/08/23 06:42:37;;;;;;;7.32;1.77;;;;;;;;;;4992343;28;20135;-85
2021/08/23 06:45:05;;;;;;;4.93;1.58;;;;;;;;;;4999490;28;20566;-84
2021/08/23 06:47:35;;;;;;;5.10;1.75;;;;;;;;;;5005116;28;20050;-83
2021/08/23 06:50:04;;;;;;;9.68;2.33;;;;;;;;;;5014933;28;20085;-85
2021/08/23 06:52:31;;;;;;;5.10;1.90;;;;;;;;;;5011159;28;20083;-84
2021/08/23 06:55:04;;;;;;;6.05;1.80;;;;;;;;;;5015787;28;20694;-85
2021/08/23 06:57:32;;;;;;;4.57;1.70;;;;;;;;;;5013752;28;20490;-85
2021/08/23 06:59:59;;;;;;;5.00;1.40;;;;;;;;;;5004660;28;20056;-85
2021/08/23 07:02:26;;;;;;;5.45;1.50;;;;;;;;;;5011067;28;20698;-85
2021/08/23 07:04:54;;;;;;;8.95;1.48;;;;;;;;;;5012709;28;20700;-85
2021/08/23 07:07:24;;;;;;;6.63;1.90;;;;;;;;;;4996843;28;20054;-85
2021/08/23 07:09:51;;;;;;;5.72;2.28;;;;;;;;;;5013897;28;20509;-84
2021/08/23 07:12:18;;;;;;;7.70;1.58;;;;;;;;;;5012297;28;20042;-84
2021/08/23 07:14:46;;;;;;;5.40;1.33;;;;;;;;;;4996515;28;20049;-84
2021/08/23 07:17:13;;;;;;;11.55;2.50;;;;;;;;;;5013701;28;20890;-84
2021/08/23 07:19:50;;;;;;;5.35;1.70;;;;;;;;;;5013270;28;20133;-82
2021/08/23 07:22:29;;;;;;;3.15;1.45;;;;;;;;;;5013062;28;20635;-82
2021/08/23 07:24:57;;;;;;;4.70;1.20;;;;;;;;;;4994836;28;20153;-85
2021/08/23 07:27:24;;;;;;;6.43;1.55;;;;;;;;;;4996583;28;20077;-80
2021/08/23 07:29:51;;;;;;;4.30;1.13;;;;;;;;;;5008996;28;20546;-81
2021/08/23 07:32:19;;;;;;;3.00;1.35;;;;;;;;;;4995431;28;20637;-80
2021/08/23 07:34:46;;;;;;;4.18;1.40;;;;;;;;;;5010697;28;20089;-80
2021/08/23 07:37:14;;;;;;;6.78;1.48;;;;;;;;;;5012553;28;20076;-81
2021/08/23 07:39:50;;;;;;;5.25;1.30;;;;;;;;;;5003959;28;20054;-80
2021/08/23 07:42:18;;;;;;;2.97;1.05;;;;;;;;;;4997717;28;20081;-81
2021/08/23 07:44:45;;;;;;;5.25;1.35;;;;;;;;;;4998899;28;20053;-81
2021/08/23 07:47:13;;;;;;;3.13;1.52;;;;;;;;;;5012838;28;20127;-81
2021/08/23 07:49:40;;;;;;;3.38;1.40;;;;;;;;;;5012299;28;20082;-81
2021/08/23 07:52:10;;;;;;;12.77;3.83;;;;;;;;;;4997314;28;20424;-82
2021/08/23 07:54:37;;;;;;;4.22;2.30;;;;;;;;;;5007430;28;20388;-83
2021/08/23 07:57:04;;;;;;;5.20;2.00;;;;;;;;;;5015539;28;20129;-81
2021/08/23 07:59:36;;;;;;;3.05;1.58;;;;;;;;;;4993262;28;20506;-80
2021/08/23 08:02:03;;;;;;;5.15;1.77;;;;;;;;;;4992490;28;20056;-81
2021/08/23 08:04:31;;;;;;;6.95;1.30;;;;;;;;;;5009627;28;20737;-80
2021/08/23 08:06:58;;;;;;;4.85;1.40;;;;;;;;;;4991935;28;20133;-80
2021/08/23 08:09:28;;;;;;;6.20;1.35;;;;;;;;;;4993717;28;20121;-81
2021/08/23 08:11:57;;;;;;;5.05;1.30;;;;;;;;;;5012912;28;20843;-82
2021/08/23 08:14:25;;;;;;;2.97;1.25;;;;;;;;;;4990742;28;20038;-82
2021/08/23 08:16:53;;;;;;;3.88;1.55;;;;;;;;;;5010393;28;20118;-82
2021/08/23 08:19:22;;;;;;;2.55;1.48;;;;;;;;;;5015767;28;20136;-82
2021/08/23 08:21:58;;;;;;;5.82;1.15;;;;;;;;;;4996986;28;20080;-84
2021/08/23 08:24:25;;;;;;;3.00;1.17;;;;;;;;;;5011764;28;20136;-82
2021/08/23 08:26:54;;;;;;;3.50;1.40;;;;;;;;;;5015238;28;20084;-83
2021/08/23 08:29:22;;;;;;;1.90;1.00;;;;;;;;;;4996685;28;20141;-83
2021/08/23 08:31:49;;;;;;;2.95;1.30;;;;;;;;;;5013147;28;20069;-83
2021/08/23 08:34:16;;;;;;;4.03;1.52;;;;;;;;;;5013507;28;20743;-80
2021/08/23 08:36:44;;;;;;;3.17;1.35;;;;;;;;;;5000183;28;20049;-80
2021/08/23 08:39:12;;;;;;;2.53;1.05;;;;;;;;;;5003138;28;20115;-81
2021/08/23 08:41:39;;;;;;;6.97;1.15;;;;;;;;;;4990803;28;20129;-81
2021/08/23 08:44:07;;;;;;;3.15;1.75;;;;;;;;;;4995214;28;20486;-80
2021/08/23 08:46:34;;;;;;;4.32;1.40;;;;;;;;;;4998697;28;20569;-80
2021/08/23 08:49:05;;;;;;;5.55;1.45;;;;;;;;;;5015604;28;20442;-80
2021/08/23 08:51:36;;;;;;;3.05;1.38;;;;;;;;;;4995378;28;20125;-81
2021/08/23 08:54:04;;;;;;;3.03;1.33;;;;;;;;;;5000217;28;20093;-80
2021/08/23 08:56:32;;;;;;;3.92;1.55;;;;;;;;;;5019328;28;20125;-81
2021/08/23 08:58:59;;;;;;;11.75;2.17;;;;;;;;;;4996200;28;20067;-81
2021/08/23 09:01:30;;;;;;;4.90;1.40;;;;;;;;;;4999715;28;20051;-81
2021/08/23 09:04:01;;;;;;;5.07;1.20;;;;;;;;;;5003899;28;20057;-80
2021/08/23 09:06:36;;;;;;;4.57;1.50;;;;;;;;;;5018454;28;20143;-82
2021/08/23 09:09:04;;;;;;;;;;;;;;;;;;4993167;28;20129;-83
2021/08/23 09:11:32;;;;;;;4.28;1.00;;;;;;;;;;5009817;28;20337;-84
2021/08/23 09:14:00;;;;;;;3.80;1.10;;;;;;;;;;5005314;28;20062;-83
2021/08/23 09:16:29;;;;;;;4.38;1.23;;;;;;;;;;5003432;28;20049;-80
2021/08/23 09:18:56;;;;;;;5.22;1.30;;;;;;;;;;4989983;28;20054;-82
2021/08/23 09:21:34;;;;;;;3.60;1.23;;;;;;;;;;4992155;28;20148;-80
2021/08/23 09:24:02;;;;;;;5.40;1.38;;;;;;;;;;5008375;28;20054;-83
2021/08/23 09:26:34;;;;;;;4.70;1.30;;;;;;;;;;4992464;28;20046;-81
2021/08/23 09:29:03;;;;;;;2.83;1.10;;;;;;;;;;5010014;28;20046;-81
2021/08/23 09:31:32;;;;;;;4.53;1.25;;;;;;;;;;4989818;28;20046;-82
2021/08/23 09:34:03;;;;;;;5.53;1.55;;;;;;;;;;5009184;28;20741;-82
2021/08/23 09:36:31;;;;;;;1.98;1.10;;;;;;;;;;5005116;28;20112;-82
2021/08/23 09:39:06;;;;;;;4.95;1.40;;;;;;;;;;5009407;28;20089;-80
2021/08/23 09:41:37;;;;;;;2.33;1.00;;;;;;;;;;5009173;28;20038;-81
2021/08/23 09:44:14;;;;;;;2.63;1.02;;;;;;;;;;4999900;28;20136;-81
2021/08/23 09:46:42;;;;;;;1.80;1.10;;;;;;;;;;5010198;28;20089;-80
2021/08/23 09:49:13;;;;;;;5.75;1.40;;;;;;;;;;4993190;28;20050;-81
2021/08/23 09:51:41;;;;;;;3.80;1.40;;;;;;;;;;4985464;28;20463;-82
2021/08/23 09:54:16;;;;;;;8.45;1.42;;;;;;;;;;5009272;28;20112;-82
2021/08/23 09:56:44;;;;;;;;;;;;;;;;;;4990793;28;20056;-84
2021/08/23 09:59:14;;;;;;;4.63;1.58;;;;;;;;;;4992408;28;19968;-84
2021/08/23 10:01:41;;;;;;;6.40;1.55;;;;;;;;;;4992903;28;20088;-82
2021/08/23 10:04:10;;;;;;;2.28;1.35;;;;;;;;;;4993155;28;20666;-82
2021/08/23 10:06:37;;;;;;;3.60;1.40;;;;;;;;;;5012071;28;20169;-82
2021/08/23 10:09:05;;;;;;;4.32;1.70;;;;;;;;;;5010519;28;20077;-83
2021/08/23 10:11:33;;;;;;;5.70;1.50;;;;;;;;;;5001600;28;20514;-82
2021/08/23 10:14:01;;;;;;;2.92;1.30;;;;;;;;;;5003494;28;20499;-82
2021/08/23 10:16:30;;;;;;;3.63;1.13;;;;;;;;;;5009836;28;20068;-84
2021/08/23 10:18:57;;;;;;;1.70;1.15;;;;;;;;;;5013446;28;20072;-82
2021/08/23 10:21:24;;;;;;;2.35;1.25;;;;;;;;;;4995368;28;20081;-85
2021/08/23 10:23:53;;;;;;;5.38;1.45;;;;;;;;;;4991287;28;20116;-85
2021/08/23 10:26:20;;;;;;;2.67;1.35;;;;;;;;;;5005938;28;20132;-85
2021/08/23 10:28:50;;;;;;;3.72;0.90;;;;;;;;;;5012756;28;20073;-84
2021/08/23 10:31:19;;;;;;;3.70;1.40;;;;;;;;;;5013336;28;20085;-85
2021/08/23 10:33:47;;;;;;;5.38;1.35;;;;;;;;;;4992003;28;20045;-82
2021/08/23 10:36:16;;;;;;;5.53;1.50;;;;;;;;;;5013119;28;20469;-84
2021/08/23 10:38:44;;;;;;;2.95;1.25;;;;;;;;;;5012912;28;20189;-83
2021/08/23 10:41:13;;;;;;;2.58;1.35;;;;;;;;;;5012505;28;20057;-83
2021/08/23 10:43:45;;;;;;;4.45;1.38;;;;;;;;;;4994182;28;20160;-81
2021/08/23 10:46:21;;;;;;;5.57;1.10;;;;;;;;;;5005229;28;20140;-82
2021/08/23 10:48:49;;;;;;;1.75;1.10;;;;;;;;;;5007245;28;20046;-82
2021/08/23 10:51:38;;;;;;;4.45;1.23;;;;;;;;;;5013321;28;20077;-82
2021/08/23 10:54:22;;;;;;;4.30;1.63;;;;;;;;;;4996025;28;20100;-81
2021/08/23 10:56:59;;;;;;;2.10;1.08;;;;;;;;;;5011738;28;20046;-81
2021/08/23 10:59:45;;;;;;;2.78;1.02;;;;;;;;;;5013520;28;20096;-82
2021/08/23 11:02:15;;;;;;;3.75;1.08;;;;;;;;;;5007514;28;20041;-82
2021/08/23 11:04:54;;;;;;;2.75;0.88;;;;;;;;;;5025896;28;20136;-82
2021/08/23 11:07:25;;;;;;;11.65;2.83;;;;;;;;;;5013428;28;20120;-81
2021/08/23 11:10:05;;;;;;;3.10;1.10;;;;;;;;;;5011778;28;20558;-81
2021/08/23 11:12:44;;;;;;;2.20;1.10;;;;;;;;;;5003081;28;20046;-81
2021/08/23 11:15:14;;;;;;;2.08;1.27;;;;;;;;;;5010604;28;20080;-84
2021/08/23 11:17:45;;;;;;;3.55;1.40;;;;;;;;;;4987429;28;20133;-82
2021/08/23 11:20:17;;;;;;;3.25;1.30;;;;;;;;;;5012699;28;20072;-81
2021/08/23 11:22:50;;;;;;;6.32;1.13;;;;;;;;;;5012514;28;20133;-82
2021/08/23 11:25:25;;;;;;;1.70;1.00;;;;;;;;;;5013853;28;20133;-83
2021/08/23 11:27:52;;;;;;;2.90;1.35;;;;;;;;;;5008528;28;20107;-82
2021/08/23 11:30:30;;;;;;;2.90;1.20;;;;;;;;;;5014052;28;20046;-81
2021/08/23 11:32:57;;;;;;;1.98;1.25;;;;;;;;;;4995378;28;20057;-81
2021/08/23 11:35:26;;;;;;;6.85;2.08;;;;;;;;;;5013788;28;20046;-82
2021/08/23 11:37:57;;;;;;;4.57;1.33;;;;;;;;;;4995913;28;20042;-81
2021/08/23 11:40:25;;;;;;;2.03;1.25;;;;;;;;;;4997561;28;20133;-81
2021/08/23 11:42:53;;;;;;;1.45;0.80;;;;;;;;;;4997562;28;20526;-81
2021/08/23 11:45:25;;;;;;;1.83;0.90;;;;;;;;;;4993223;28;20545;-85
2021/08/23 11:47:52;;;;;;;3.35;1.10;;;;;;;;;;5008088;28;20081;-82
2021/08/23 11:50:21;;;;;;;5.20;1.75;;;;;;;;;;4981697;28;20073;-82
2021/08/23 11:52:49;;;;;;;1.75;1.00;;;;;;;;;;5012484;28;20136;-81
2021/08/23 11:55:31;;;;;;;2.35;1.08;;;;;;;;;;5000784;28;20666;-81
2021/08/23 11:58:00;;;;;;;1.67;1.05;;;;;;;;;;4985365;28;20050;-80
2021/08/23 12:00:27;;;;;;;5.10;1.20;;;;;;;;;;4988584;28;20058;-82
2021/08/23 12:03:05;;;;;;;3.75;1.05;;;;;;;;;;5011302;28;20077;-82
2021/08/23 12:05:33;;;;;;;3.78;1.13;;;;;;;;;;4995094;28;20538;-80
2021/08/23 12:08:02;;;;;;;1.65;1.17;;;;;;;;;;5004672;28;20054;-82
2021/08/23 12:10:29;;;;;;;3.67;1.30;;;;;;;;;;4991855;28;20077;-84
2021/08/23 12:13:20;;;;;;;2.35;1.05;;;;;;;;;;5009194;28;20077;-82
2021/08/23 12:16:02;;;;;;;3.50;2.55;;;;;;;;;;5008937;28;20069;-82
2021/08/23 12:18:40;;;;;;;2.70;1.42;;;;;;;;;;5010651;28;20527;-81
2021/08/23 12:21:10;;;;;;;2.50;1.20;;;;;;;;;;5012255;28;20073;-82
2021/08/23 12:23:56;;;;;;;5.18;1.48;;;;;;;;;;5008875;28;20126;-82
2021/08/23 12:26:25;;;;;;;;;;;;;;;;;;4992949;28;20133;-82
2021/08/23 12:28:56;;;;;;;5.97;1.10;;;;;;;;;;5009048;28;20193;-82
2021/08/23 12:31:23;;;;;;;2.05;1.20;;;;;;;;;;5010142;28;20085;-82
2021/08/23 12:33:50;;;;;;;4.75;1.40;;;;;;;;;;5009926;28;20073;-81
2021/08/23 12:36:17;;;;;;;6.82;1.00;;;;;;;;;;4996191;28;20050;-84
2021/08/23 12:38:46;;;;;;;1.75;1.05;;;;;;;;;;4992686;28;20166;-81
2021/08/23 12:41:16;;;;;;;2.47;1.00;;;;;;;;;;5006668;28;20550;-81
2021/08/23 12:43:44;;;;;;;4.65;1.20;;;;;;;;;;4987303;28;20058;-83
2021/08/23 12:46:13;;;;;;;1.92;1.00;;;;;;;;;;4988595;28;20400;-82
2021/08/23 12:48:40;;;;;;;6.75;2.03;;;;;;;;;;5015866;22;20550;-80
2021/08/23 12:51:07;;;;;;;3.13;1.25;;;;;;;;;;5022641;28;20069;-81
2021/08/23 12:53:35;;;;;;;2.38;1.45;;;;;;;;;;5029533;28;20128;-82
2021/08/23 12:56:02;;;;;;;4.38;1.20;;;;;;;;;;5006892;28;20503;-82
2021/08/23 12:58:29;;;;;;;24.77;2.47;;;;;;;;;;5019784;28;20374;-85
2021/08/23 13:00:58;;;;;;;3.35;1.35;;;;;;;;;;5030248;28;20220;-85
2021/08/23 13:03:27;;;;;;;5.25;1.83;;;;;;;;;;5031091;28;20103;-84
2021/08/23 13:05:54;;;;;;;2.35;1.00;;;;;;;;;;5014147;28;20474;-84
2021/08/23 13:08:21;;;;;;;1.55;1.05;;;;;;;;;;5014321;28;20133;-83
2021/08/23 13:10:48;;;;;;;2.78;1.20;;;;;;;;;;5016649;28;20153;-84
2021/08/23 13:13:16;;;;;;;2.60;1.02;;;;;;;;;;5012671;28;20088;-81
2021/08/23 13:15:45;;;;;;;1.77;1.20;;;;;;;;;;5013880;28;20088;-82
2021/08/23 13:18:12;;;;;;;7.85;1.02;;;;;;;;;;5025073;28;20049;-80
2021/08/23 13:20:40;;;;;;;3.78;0.93;;;;;;;;;;5026272;28;20744;-78
2021/08/23 13:23:11;;;;;;;4.57;0.90;;;;;;;;;;5018997;28;20069;-81
2021/08/23 13:25:39;;;;;;;4.93;1.13;;;;;;;;;;5025327;28;20140;-81
2021/08/23 13:28:07;;;;;;;2.67;1.00;;;;;;;;;;5021090;28;20055;-80
2021/08/23 13:30:36;;;;;;;4.10;1.20;;;;;;;;;;5007385;28;21826;-81
2021/08/23 13:33:04;;;;;;;6.30;1.52;;;;;;;;;;5008259;28;20041;-83
2021/08/23 13:35:35;;;;;;;4.57;1.15;;;;;;;;;;5008266;28;20060;-79
2021/08/23 13:38:04;;;;;;;2.03;1.00;;;;;;;;;;5021884;28;20080;-80
2021/08/23 13:40:36;;;;;;;2.95;1.27;;;;;;;;;;5005236;28;20064;-79
2021/08/23 13:43:04;;;;;;;2.70;1.10;;;;;;;;;;5002763;28;20121;-80
2021/08/23 13:45:31;;;;;;;3.90;0.93;;;;;;;;;;5001661;28;20093;-80
2021/08/23 13:47:59;;;;;;;1.80;1.13;;;;;;;;;;5023873;28;20053;-80
2021/08/23 13:50:26;;;;;;;2.20;1.20;;;;;;;;;;5001667;28;20154;-80
2021/08/23 13:52:53;;;;;;;3.33;1.02;;;;;;;;;;5008433;28;20132;-81
2021/08/23 13:55:23;;;;;;;5.22;1.40;;;;;;;;;;5009182;28;20077;-81
2021/08/23 13:57:53;;;;;;;3.38;1.20;;;;;;;;;;5027832;28;20129;-80
2021/08/23 14:00:22;;;;;;;2.38;0.90;;;;;;;;;;5015828;28;20536;-80
2021/08/23 14:02:52;;;;;;;5.85;0.95;;;;;;;;;;5032459;28;20140;-80
2021/08/23 14:05:20;;;;;;;4.57;1.23;;;;;;;;;;5011709;28;20126;-81
2021/08/23 14:07:53;;;;;;;7.28;1.40;;;;;;;;;;5005743;28;20046;-80
2021/08/23 14:10:25;;;;;;;12.43;0.88;;;;;;;;;;4995444;28;20053;-83
2021/08/23 14:12:52;;;;;;;2.47;1.17;;;;;;;;;;4998510;28;20184;-82
2021/08/23 14:15:20;;;;;;;3.97;1.02;;;;;;;;;;4997089;28;20041;-83
2021/08/23 14:17:51;;;;;;;3.58;1.08;;;;;;;;;;4998082;28;20085;-84
2021/08/23 14:20:18;;;;;;;2.25;1.30;;;;;;;;;;5019568;28;20065;-82
2021/08/23 14:22:47;;;;;;;1.73;0.82;;;;;;;;;;5023903;28;20053;-85
2021/08/23 14:25:15;;;;;;;2.20;1.27;;;;;;;;;;5010817;28;20463;-84
2021/08/23 14:27:43;;;;;;;6.35;0.98;;;;;;;;;;5006577;28;20080;-81
2021/08/23 14:30:10;;;;;;;5.57;1.10;;;;;;;;;;5027269;28;20064;-82
2021/08/23 14:32:38;;;;;;;2.67;0.80;;;;;;;;;;5002527;28;20452;-86
2021/08/23 14:35:05;;;;;;;2.78;1.05;;;;;;;;;;5005576;28;20054;-84
2021/08/23 14:37:37;;;;;;;4.05;0.85;;;;;;;;;;5005307;28;20092;-83
2021/08/23 14:40:04;;;;;;;6.25;1.00;;;;;;;;;;5001048;28;20144;-86
2021/08/23 14:42:32;;;;;;;3.58;1.50;;;;;;;;;;5025079;28;20080;-86
2021/08/23 14:45:00;;;;;;;4.65;1.70;;;;;;;;;;5016919;28;20556;-87
2021/08/23 14:47:31;;;;;;;7.60;1.48;;;;;;;;;;5002047;28;20137;-87
2021/08/23 14:49:59;;;;;;;5.13;1.10;;;;;;;;;;5005919;28;20116;-84
2021/08/23 14:52:26;;;;;;;10.98;1.35;;;;;;;;;;5009280;28;20077;-86